createdAt,value
2023-05-16T00:00:54.380Z,7.95
2023-05-16T00:03:21.962Z,3.63
2023-05-16T00:05:50.782Z,5.78
2023-05-16T00:08:18.145Z,6.82
2023-05-16T00:10:45.630Z,7.55
2023-05-16T00:13:13.872Z,4.22
2023-05-16T00:15:41.816Z,4.32
2023-05-16T00:18:10.220Z,7.88
2023-05-16T00:20:37.790Z,5.18
2023-05-16T00:23:06.135Z,5.88
2023-05-16T00:25:33.510Z,8.30
2023-05-16T00:28:00.953Z,6.35
2023-05-16T00:30:28.897Z,4.22
2023-05-16T00:32:56.656Z,3.83
2023-05-16T00:35:24.309Z,7.65
2023-05-16T00:37:51.858Z,4.22
2023-05-16T00:40:19.302Z,4.65
2023-05-16T00:42:46.633Z,8.27
2023-05-16T00:45:14.102Z,3.70
2023-05-16T00:47:41.971Z,3.60
2023-05-16T00:50:10.207Z,4.75
2023-05-16T00:52:38.090Z,7.97
2023-05-16T00:55:06.840Z,4.85
2023-05-16T00:57:34.405Z,7.63
2023-05-16T01:00:02.174Z,4.30
2023-05-16T01:02:29.731Z,5.05
2023-05-16T01:04:58.110Z,4.65
2023-05-16T01:07:25.647Z,5.88
2023-05-16T01:09:53.650Z,3.70
2023-05-16T01:12:45.647Z,4.10
2023-05-16T01:15:28.691Z,3.70
2023-05-16T01:17:59.288Z,7.13
2023-05-16T01:21:05.055Z,3.85
2023-05-16T01:23:44.173Z,7.53
2023-05-16T01:26:21.695Z,4.70
2023-05-16T01:28:50.927Z,7.25
2023-05-16T01:31:19.407Z,7.45
2023-05-16T01:33:47.405Z,6.45
2023-05-16T01:36:26.718Z,5.95
2023-05-16T01:39:20.445Z,5.60
2023-05-16T01:42:08.985Z,4.30
2023-05-16T01:44:58.161Z,7.47
2023-05-16T01:47:28.022Z,5.78
2023-05-16T01:50:13.947Z,6.40
2023-05-16T01:52:50.185Z,6.60
2023-05-16T01:55:25.178Z,3.67
2023-05-16T01:57:53.569Z,4.30
2023-05-16T02:00:21.292Z,4.72
2023-05-16T02:02:48.666Z,7.40
2023-05-16T02:05:16.348Z,4.85
2023-05-16T02:07:44.355Z,5.30
2023-05-16T02:10:12.755Z,4.60
2023-05-16T02:12:40.279Z,7.57
2023-05-16T02:15:08.333Z,5.85
2023-05-16T02:17:36.053Z,5.68
2023-05-16T02:20:07.207Z,4.13
2023-05-16T02:22:34.664Z,4.13
2023-05-16T02:25:03.582Z,5.72
2023-05-16T02:27:30.985Z,5.90
2023-05-16T02:29:59.071Z,3.88
2023-05-16T02:32:26.808Z,3.38
2023-05-16T02:34:54.466Z,6.88
2023-05-16T02:37:22.442Z,5.68
2023-05-16T02:39:49.892Z,3.00
2023-05-16T02:42:17.323Z,7.05
2023-05-16T02:44:44.911Z,3.90
2023-05-16T02:47:12.353Z,5.25
2023-05-16T02:49:39.797Z,7.95
2023-05-16T02:52:07.877Z,3.15
2023-05-16T02:54:35.915Z,5.28
2023-05-16T02:57:03.360Z,3.55
2023-05-16T02:59:30.941Z,4.32
2023-05-16T03:01:58.547Z,4.20
2023-05-16T03:04:26.159Z,4.25
2023-05-16T03:06:53.502Z,4.95
2023-05-16T03:09:21.652Z,3.65
2023-05-16T03:11:49.368Z,6.45
2023-05-16T03:14:16.857Z,5.10
2023-05-16T03:16:45.113Z,11.73
2023-05-16T03:19:12.753Z,6.88
2023-05-16T03:21:40.370Z,7.18
2023-05-16T03:24:09.145Z,6.22
2023-05-16T03:26:36.590Z,3.65
2023-05-16T03:29:04.039Z,5.18
2023-05-16T03:31:32.497Z,4.05
2023-05-16T03:33:59.869Z,3.42
2023-05-16T03:36:27.967Z,7.60
2023-05-16T03:38:55.317Z,6.40
2023-05-16T03:41:22.976Z,4.05
2023-05-16T03:43:50.441Z,4.72
2023-05-16T03:46:17.940Z,7.05
2023-05-16T03:48:47.739Z,6.03
2023-05-16T03:51:15.261Z,4.65
2023-05-16T03:53:42.767Z,6.35
2023-05-16T03:56:10.130Z,4.68
2023-05-16T03:58:37.563Z,6.55
2023-05-16T04:01:05.024Z,5.63
2023-05-16T04:03:33.784Z,6.13
2023-05-16T04:06:01.334Z,5.35
2023-05-16T04:08:28.791Z,4.20
2023-05-16T04:10:56.528Z,7.15
2023-05-16T04:13:23.998Z,3.30
2023-05-16T04:15:51.664Z,4.32
2023-05-16T04:18:19.378Z,5.38
2023-05-16T04:20:47.678Z,5.55
2023-05-16T04:23:15.190Z,4.38
2023-05-16T04:25:43.226Z,4.80
2023-05-16T04:28:10.671Z,6.00
2023-05-16T04:30:38.521Z,8.30
2023-05-16T04:33:06.253Z,4.93
2023-05-16T04:35:33.997Z,4.63
2023-05-16T04:38:02.234Z,8.38
2023-05-16T04:40:29.755Z,5.35
2023-05-16T04:42:57.212Z,5.43
2023-05-16T04:45:25.055Z,6.82
2023-05-16T04:47:52.979Z,3.70
2023-05-16T04:50:20.751Z,4.55
2023-05-16T04:52:48.116Z,6.57
2023-05-16T04:55:16.307Z,4.80
2023-05-16T04:57:43.832Z,8.90
2023-05-16T05:00:13.796Z,5.18
2023-05-16T05:02:46.388Z,5.25
2023-05-16T05:05:15.508Z,7.40
2023-05-16T05:07:43.601Z,6.40
2023-05-16T05:10:12.436Z,4.45
2023-05-16T05:12:41.924Z,6.55
2023-05-16T05:15:10.317Z,4.90
2023-05-16T05:17:38.283Z,13.25
2023-05-16T05:20:10.666Z,5.97
2023-05-16T05:22:38.228Z,4.75
2023-05-16T05:25:06.327Z,4.85
2023-05-16T05:27:34.009Z,8.10
2023-05-16T05:30:01.842Z,7.55
2023-05-16T05:32:29.873Z,5.72
2023-05-16T05:34:57.579Z,5.75
2023-05-16T05:37:26.157Z,4.18
2023-05-16T05:39:54.966Z,6.60
2023-05-16T05:42:22.831Z,8.02
2023-05-16T05:44:51.189Z,6.32
2023-05-16T05:47:18.678Z,8.30
2023-05-16T05:49:46.618Z,6.55
2023-05-16T05:52:14.525Z,6.57
2023-05-16T05:54:43.866Z,5.68
2023-05-16T05:57:12.138Z,8.98
2023-05-16T05:59:41.069Z,7.75
2023-05-16T06:02:12.095Z,6.90
2023-05-16T08:14:12.245Z,8.30
2023-05-16T08:19:41.973Z,14.43
2023-05-16T08:22:09.994Z,9.50
2023-05-16T08:24:40.127Z,11.27
2023-05-16T08:27:09.074Z,10.20
2023-05-16T08:29:36.776Z,10.55
2023-05-16T08:32:04.403Z,11.40
2023-05-16T08:34:32.972Z,12.55
2023-05-16T08:37:00.803Z,12.68
2023-05-16T08:39:28.395Z,9.18
2023-05-16T08:41:56.752Z,13.75
2023-05-16T08:44:25.326Z,15.27
2023-05-16T08:46:54.583Z,16.80
2023-05-16T08:49:23.035Z,11.10
2023-05-16T08:51:57.159Z,11.60
2023-05-16T08:54:26.227Z,12.98
2023-05-16T08:56:56.985Z,9.02
2023-05-16T08:59:25.106Z,10.15
2023-05-16T09:01:52.918Z,13.05
2023-05-16T09:04:22.054Z,10.43
2023-05-16T09:06:54.978Z,13.60
2023-05-16T09:09:22.456Z,9.00
2023-05-16T09:11:50.113Z,11.65
2023-05-16T09:14:23.774Z,15.32
2023-05-16T09:17:11.514Z,9.95
2023-05-16T09:19:42.681Z,13.63
2023-05-16T09:22:16.535Z,13.70
2023-05-16T09:24:46.503Z,11.77
2023-05-16T09:27:16.336Z,9.77
2023-05-16T09:29:45.557Z,11.25
2023-05-16T09:32:14.959Z,13.98
2023-05-16T09:34:49.182Z,11.48
2023-05-16T09:37:17.246Z,14.00
2023-05-16T09:39:53.909Z,16.23
2023-05-16T09:42:23.203Z,11.25
2023-05-16T09:44:53.422Z,12.85
2023-05-16T09:47:24.136Z,17.33
2023-05-16T09:49:54.919Z,10.27
2023-05-16T09:52:28.191Z,11.85
2023-05-16T09:54:56.971Z,10.75
2023-05-16T09:57:27.290Z,11.82
2023-05-16T10:00:01.930Z,13.40
2023-05-16T10:02:31.848Z,13.30
2023-05-16T10:05:05.125Z,13.95
2023-05-16T10:07:35.368Z,9.85
2023-05-16T10:10:09.003Z,13.05
2023-05-16T10:12:38.480Z,11.70
2023-05-16T10:15:06.530Z,13.52
2023-05-16T10:17:41.494Z,15.15
2023-05-16T10:20:12.751Z,11.57
2023-05-16T10:22:44.605Z,10.77
2023-05-16T10:25:27.038Z,11.05
2023-05-16T10:27:58.842Z,9.10
2023-05-16T10:30:28.421Z,13.68
2023-05-16T10:32:58.835Z,12.85
2023-05-16T10:35:28.037Z,13.20
2023-05-16T10:37:57.162Z,12.07
2023-05-16T10:40:25.364Z,10.23
2023-05-16T10:43:00.884Z,10.48
2023-05-16T10:45:29.273Z,12.27
2023-05-16T10:47:59.155Z,17.30
2023-05-16T10:50:44.863Z,11.43
2023-05-16T10:53:22.656Z,14.15
2023-05-16T10:56:00.777Z,11.40
2023-05-16T10:58:39.124Z,10.57
2023-05-16T11:01:35.422Z,10.68
2023-05-16T11:04:11.079Z,11.15
2023-05-16T11:06:51.964Z,12.15
2023-05-16T11:09:24.387Z,11.32
2023-05-16T11:12:35.988Z,13.00
2023-05-16T11:15:28.209Z,10.77
2023-05-16T11:18:11.291Z,9.85
2023-05-16T11:20:41.064Z,10.80
2023-05-16T11:23:22.070Z,11.43
2023-05-16T11:25:55.493Z,14.45
2023-05-16T11:28:25.646Z,11.48
2023-05-16T11:31:00.171Z,13.35
2023-05-16T11:34:01.890Z,10.85
2023-05-16T11:36:31.462Z,12.48
2023-05-16T11:39:11.008Z,11.20
2023-05-16T11:41:40.651Z,10.43
2023-05-16T11:44:11.920Z,12.40
2023-05-16T11:46:43.111Z,10.07
2023-05-16T11:49:10.969Z,10.15
2023-05-16T11:51:43.693Z,11.25
2023-05-16T11:54:13.565Z,10.23
2023-05-16T11:56:41.657Z,12.02
2023-05-16T11:59:09.815Z,10.85
2023-05-16T12:01:39.531Z,12.80
2023-05-16T12:04:10.946Z,11.30
2023-05-16T12:06:45.453Z,9.10
2023-05-16T12:09:17.599Z,9.48
2023-05-16T12:11:45.932Z,7.82
2023-05-16T12:14:14.815Z,8.05
2023-05-16T12:16:46.668Z,9.27
2023-05-16T12:19:15.289Z,8.95
2023-05-16T12:21:42.924Z,9.77
2023-05-16T12:24:12.524Z,10.32
2023-05-16T12:26:42.985Z,11.57
2023-05-16T12:29:11.826Z,12.43
2023-05-16T12:31:40.721Z,9.02
2023-05-16T12:34:19.275Z,7.22
2023-05-16T12:36:51.923Z,9.75
2023-05-16T12:39:20.031Z,12.27
2023-05-16T12:41:47.788Z,8.90
2023-05-16T12:44:24.419Z,10.93
2023-05-16T12:46:53.261Z,15.85
2023-05-16T12:49:22.356Z,10.43
2023-05-16T12:51:54.331Z,11.60
2023-05-16T12:54:25.608Z,11.15
2023-05-16T12:56:53.322Z,12.52
2023-05-16T12:59:20.871Z,14.27
2023-05-16T13:01:48.539Z,11.50
2023-05-16T13:04:19.856Z,11.30
2023-05-16T13:06:57.382Z,12.57
2023-05-16T13:09:31.417Z,12.70
2023-05-16T13:12:00.479Z,15.77
2023-05-16T13:14:28.089Z,14.23
2023-05-16T13:16:55.416Z,13.15
2023-05-16T13:19:24.613Z,13.07
2023-05-16T13:21:52.366Z,11.30
2023-05-16T13:24:19.892Z,12.27
2023-05-16T13:26:48.396Z,13.30
2023-05-16T13:29:16.184Z,11.20
2023-05-16T13:31:43.798Z,8.27
2023-05-16T13:34:11.393Z,13.18
2023-05-16T13:36:53.073Z,13.77
2023-05-16T13:39:22.398Z,14.50
2023-05-16T13:41:50.385Z,12.50
2023-05-16T13:44:18.778Z,14.25
2023-05-16T13:46:46.598Z,12.77
2023-05-16T13:49:14.176Z,13.38
2023-05-16T13:51:41.672Z,11.18
2023-05-16T13:54:09.212Z,13.18
2023-05-16T13:56:36.844Z,10.60
2023-05-16T13:59:07.197Z,12.77
2023-05-16T14:01:36.960Z,11.90
2023-05-16T14:04:05.012Z,13.75
2023-05-16T14:06:33.677Z,11.18
2023-05-16T14:09:01.428Z,13.35
2023-05-16T14:11:29.581Z,12.18
2023-05-16T14:13:58.025Z,12.35
2023-05-16T14:16:26.352Z,11.73
2023-05-16T14:18:54.269Z,11.10
2023-05-16T14:21:21.746Z,12.02
2023-05-16T14:23:49.317Z,12.60
2023-05-16T14:26:18.204Z,12.27
2023-05-16T14:28:45.531Z,10.35
2023-05-16T14:31:12.921Z,12.85
2023-05-16T14:33:41.273Z,10.23
2023-05-16T14:36:09.093Z,9.35
2023-05-16T14:38:37.015Z,12.00
2023-05-16T14:41:04.563Z,10.45
2023-05-16T14:43:32.603Z,10.55
2023-05-16T14:46:00.566Z,12.52
2023-05-16T14:48:28.053Z,8.95
2023-05-16T14:50:55.501Z,10.02
2023-05-16T14:53:22.958Z,12.10
2023-05-16T14:55:50.806Z,12.80
2023-05-16T14:58:18.403Z,9.50
2023-05-16T15:00:47.066Z,9.38
2023-05-16T15:03:17.952Z,12.82
2023-05-16T15:05:45.999Z,10.98
2023-05-16T15:08:13.408Z,12.77
2023-05-16T15:10:41.977Z,9.77
2023-05-16T15:13:10.453Z,11.23
2023-05-16T15:15:39.054Z,10.50
2023-05-16T15:18:06.612Z,15.88
2023-05-16T15:20:34.461Z,11.70
2023-05-16T15:23:01.885Z,11.23
2023-05-16T15:25:29.599Z,12.18
2023-05-16T15:27:57.551Z,10.02
2023-05-16T15:30:25.250Z,10.48
2023-05-16T15:32:52.955Z,11.70
2023-05-16T15:35:20.392Z,13.10
2023-05-16T15:37:49.279Z,10.98
2023-05-16T15:40:18.698Z,12.93
2023-05-16T15:42:47.884Z,16.08
2023-05-16T15:45:15.738Z,14.05
2023-05-16T15:47:43.478Z,13.80
2023-05-16T15:50:12.693Z,15.88
2023-05-16T15:52:41.455Z,14.52
2023-05-16T15:55:09.587Z,14.93
2023-05-16T15:57:37.185Z,12.48
2023-05-16T16:00:06.784Z,16.42
2023-05-16T16:02:34.327Z,15.07
2023-05-16T16:05:01.866Z,15.32
2023-05-16T16:07:29.333Z,16.40
2023-05-16T16:09:58.589Z,13.60
2023-05-16T16:12:26.017Z,14.88
2023-05-16T16:14:55.042Z,14.80
2023-05-16T16:17:22.493Z,15.85
2023-05-16T16:19:50.025Z,15.40
2023-05-16T16:22:17.868Z,16.00
2023-05-16T16:24:45.429Z,15.38
2023-05-16T16:27:13.002Z,15.90
2023-05-16T16:29:40.591Z,16.73
2023-05-16T16:32:08.266Z,17.35
2023-05-16T16:34:35.684Z,16.77
2023-05-16T16:37:03.164Z,17.92
2023-05-16T16:39:33.116Z,20.83
2023-05-16T16:42:00.814Z,24.70
2023-05-16T16:44:28.380Z,18.95
2023-05-16T16:46:56.047Z,18.05
2023-05-16T16:49:23.658Z,16.92
2023-05-16T16:51:51.015Z,17.17
2023-05-16T16:54:18.533Z,15.63
2023-05-16T16:56:47.734Z,17.42
2023-05-16T16:59:15.324Z,17.45
2023-05-16T17:01:42.876Z,17.20
2023-05-16T17:04:10.497Z,16.77
2023-05-16T17:06:38.001Z,16.13
2023-05-16T17:09:07.028Z,16.73
2023-05-16T17:11:37.524Z,18.02
2023-05-16T17:14:06.397Z,16.65
2023-05-16T17:16:34.627Z,17.48
2023-05-16T17:19:02.322Z,18.25
2023-05-16T17:21:29.905Z,16.20
2023-05-16T17:23:58.644Z,19.23
2023-05-16T17:26:26.214Z,16.30
2023-05-16T17:28:53.732Z,17.73
2023-05-16T17:31:21.520Z,17.83
2023-05-16T17:33:49.336Z,20.10
2023-05-16T17:36:16.729Z,18.63
2023-05-16T17:38:44.140Z,20.23
2023-05-16T17:41:11.538Z,20.02
2023-05-16T17:43:39.201Z,19.40
2023-05-16T17:46:06.799Z,16.02
2023-05-16T17:48:34.263Z,19.75
2023-05-16T17:51:02.481Z,21.00
2023-05-16T17:53:30.379Z,18.13
2023-05-16T17:55:58.125Z,18.25
2023-05-16T17:58:25.727Z,17.55
2023-05-16T18:00:54.933Z,18.33
2023-05-16T18:03:23.057Z,18.80
2023-05-16T18:05:51.279Z,20.83
2023-05-16T18:08:18.844Z,21.48
2023-05-16T18:10:52.071Z,22.05
2023-05-16T18:13:20.749Z,18.35
2023-05-16T18:15:48.311Z,18.38
2023-05-16T18:18:16.021Z,21.48
2023-05-16T18:20:43.911Z,19.95
2023-05-16T18:23:11.334Z,19.80
2023-05-16T18:25:38.995Z,21.75
2023-05-16T18:28:07.983Z,23.38
2023-05-16T18:30:37.794Z,20.20
2023-05-16T18:33:08.543Z,23.20
2023-05-16T18:35:36.298Z,20.80
2023-05-16T18:38:05.038Z,21.77
2023-05-16T18:40:34.141Z,20.00
2023-05-16T18:43:01.720Z,21.80
2023-05-16T18:45:30.376Z,20.05
2023-05-16T18:47:58.104Z,20.38
2023-05-16T18:50:26.081Z,19.02
2023-05-16T18:52:57.733Z,22.58
2023-05-16T18:55:25.510Z,21.08
2023-05-16T18:57:53.544Z,25.15
2023-05-16T19:00:21.318Z,22.45
2023-05-16T19:02:48.845Z,24.85
2023-05-16T19:05:16.643Z,21.30
2023-05-16T19:07:44.176Z,21.73
2023-05-16T19:10:12.165Z,24.17
2023-05-16T19:12:39.608Z,25.50
2023-05-16T19:15:07.779Z,23.52
2023-05-16T19:17:35.408Z,25.42
2023-05-16T19:20:03.373Z,25.52
2023-05-16T19:22:30.736Z,24.90
2023-05-16T19:24:58.233Z,24.27
2023-05-16T19:27:25.767Z,24.13
2023-05-16T19:29:53.261Z,22.25
2023-05-16T19:32:20.940Z,24.02
2023-05-16T19:34:48.582Z,24.40
2023-05-16T19:37:16.147Z,25.42
2023-05-16T19:39:43.515Z,22.13
2023-05-16T19:42:11.034Z,22.98
2023-05-16T19:44:38.661Z,23.98
2023-05-16T19:47:06.388Z,24.13
2023-05-16T19:49:33.892Z,24.83
2023-05-16T19:52:03.156Z,24.58
2023-05-16T19:54:31.064Z,24.52
2023-05-16T19:56:58.552Z,26.85
2023-05-16T19:59:26.121Z,27.15
2023-05-16T20:01:54.010Z,30.30
2023-05-16T20:04:21.606Z,30.23
2023-05-16T20:06:49.114Z,32.20
2023-05-16T20:09:17.885Z,28.85
2023-05-16T20:11:45.449Z,28.77
2023-05-16T20:14:12.967Z,33.88
2023-05-16T20:16:40.688Z,29.58
2023-05-16T20:19:08.582Z,31.45
2023-05-16T20:21:36.313Z,31.15
2023-05-16T20:24:06.125Z,32.83
2023-05-16T20:26:33.693Z,31.52
2023-05-16T20:29:01.340Z,32.28
2023-05-16T20:31:28.907Z,31.73
2023-05-16T20:33:59.407Z,34.72
2023-05-16T20:36:26.949Z,33.28
2023-05-16T20:38:54.386Z,31.35
2023-05-16T20:41:22.095Z,34.47
2023-05-16T20:43:50.828Z,33.70
2023-05-16T20:46:18.329Z,34.63
2023-05-16T20:48:45.925Z,35.97
2023-05-16T20:51:13.472Z,35.25
2023-05-16T20:53:41.229Z,32.33
2023-05-16T20:56:08.602Z,37.85
2023-05-16T20:58:36.359Z,38.67
2023-05-16T21:01:03.873Z,36.03
2023-05-16T21:03:31.307Z,39.72
2023-05-16T21:05:58.922Z,35.95
2023-05-16T21:08:26.483Z,33.60
2023-05-16T21:10:53.839Z,33.63
2023-05-16T21:13:21.339Z,33.92
2023-05-16T21:15:49.597Z,32.90
2023-05-16T21:18:17.126Z,35.65
2023-05-16T21:20:44.587Z,36.33
2023-05-16T21:23:12.226Z,34.58
2023-05-16T21:25:41.276Z,38.65
2023-05-16T21:28:09.566Z,37.25
2023-05-16T21:30:37.090Z,33.08
2023-05-16T21:33:04.598Z,40.03
2023-05-16T21:35:32.066Z,36.97
2023-05-16T21:37:59.567Z,36.70
2023-05-16T21:40:28.977Z,41.55
2023-05-16T21:42:56.507Z,41.88
2023-05-16T21:45:24.070Z,40.90
2023-05-16T21:47:51.530Z,39.10
2023-05-16T21:50:19.241Z,42.85
2023-05-16T21:52:46.941Z,42.35
2023-05-16T21:55:14.490Z,45.08
2023-05-16T21:57:41.966Z,45.88
2023-05-16T22:00:10.196Z,43.67
2023-05-16T22:02:37.776Z,44.80
2023-05-16T22:05:06.248Z,45.72
2023-05-16T22:07:33.947Z,43.92
2023-05-16T22:10:01.865Z,49.67
2023-05-16T22:12:29.334Z,46.38
2023-05-16T22:14:57.255Z,47.90
2023-05-16T22:17:24.672Z,46.83
2023-05-16T22:19:52.238Z,50.10
2023-05-16T22:22:20.235Z,49.75
2023-05-16T22:24:47.861Z,44.13
2023-05-16T22:27:15.245Z,43.47
2023-05-16T22:29:42.733Z,46.92
2023-05-16T22:32:10.868Z,43.05
2023-05-16T22:34:41.150Z,42.25
2023-05-16T22:37:09.828Z,41.55
2023-05-16T22:39:37.578Z,41.75
2023-05-16T22:42:05.774Z,49.80
2023-05-16T22:44:33.126Z,40.90
2023-05-16T22:47:00.736Z,43.80
2023-05-16T22:49:28.419Z,38.50
2023-05-16T22:51:55.951Z,43.70
2023-05-16T22:54:23.487Z,44.35
2023-05-16T22:56:51.682Z,47.45
2023-05-16T22:59:19.100Z,38.75
2023-05-16T23:01:46.654Z,42.20
2023-05-16T23:04:18.167Z,38.78
2023-05-16T23:06:47.225Z,42.25
2023-05-16T23:09:14.751Z,41.55
2023-05-16T23:11:42.233Z,35.83
2023-05-16T23:14:09.716Z,39.15
2023-05-16T23:16:37.178Z,37.50
2023-05-16T23:19:06.110Z,35.47
2023-05-16T23:21:34.896Z,41.45
2023-05-16T23:24:02.373Z,38.97
2023-05-16T23:26:29.837Z,37.65
2023-05-16T23:28:57.288Z,40.33
2023-05-16T23:31:24.823Z,39.97
2023-05-16T23:33:52.289Z,40.28
2023-05-16T23:36:19.798Z,38.25
2023-05-16T23:38:47.169Z,39.90
2023-05-16T23:41:15.222Z,43.65
2023-05-16T23:43:45.638Z,44.25
2023-05-16T23:46:13.100Z,44.97
2023-05-16T23:48:41.231Z,44.53
2023-05-16T23:51:08.776Z,43.30
2023-05-16T23:53:36.530Z,42.97
2023-05-16T23:56:04.291Z,41.17
2023-05-16T23:58:31.849Z,47.90
